createdAt,value
2018-03-28T00:00:48.974Z,9.68
2018-03-28T00:03:18.844Z,8.45
2018-03-28T00:05:48.709Z,8.48
2018-03-28T00:08:18.245Z,8.93
2018-03-28T00:10:48.117Z,8.35
2018-03-28T00:13:17.942Z,9.77
2018-03-28T00:15:47.798Z,8.90
2018-03-28T00:18:17.620Z,9.38
2018-03-28T00:20:47.905Z,9.50
2018-03-28T00:23:17.753Z,9.45
2018-03-28T00:25:48.386Z,10.13
2018-03-28T00:28:18.972Z,9.52
2018-03-28T00:30:48.829Z,9.18
2018-03-28T00:33:19.424Z,9.85
2018-03-28T00:35:49.407Z,9.98
2018-03-28T00:38:19.249Z,8.90
2018-03-28T00:40:49.077Z,9.18
2018-03-28T00:43:18.956Z,9.88
2018-03-28T00:45:48.797Z,10.75
2018-03-28T00:48:18.651Z,8.98
2018-03-28T00:50:48.477Z,9.05
2018-03-28T00:53:19.086Z,9.55
2018-03-28T00:55:48.652Z,9.93
2018-03-28T00:58:18.498Z,9.95
2018-03-28T01:00:48.367Z,9.38
2018-03-28T01:03:18.184Z,9.73
2018-03-28T01:05:48.069Z,9.10
2018-03-28T01:08:18.682Z,9.98
2018-03-28T01:10:49.338Z,10.95
2018-03-28T01:13:19.173Z,10.52
2018-03-28T01:15:49.036Z,10.32
2018-03-28T01:18:18.903Z,9.70
2018-03-28T01:20:48.734Z,10.40
2018-03-28T01:23:18.417Z,10.60
2018-03-28T01:25:48.333Z,11.12
2018-03-28T01:28:18.223Z,10.65
2018-03-28T01:30:48.815Z,10.70
2018-03-28T01:33:18.693Z,10.48
2018-03-28T01:35:48.558Z,11.80
2018-03-28T01:38:18.624Z,10.48
2018-03-28T01:40:48.508Z,11.55
2018-03-28T01:43:18.558Z,11.93
2018-03-28T01:45:48.475Z,11.38
2018-03-28T01:48:18.059Z,10.80
2018-03-28T01:50:48.683Z,12.07
2018-03-28T01:53:19.280Z,11.95
2018-03-28T01:55:49.153Z,12.23
2018-03-28T01:58:20.396Z,11.73
2018-03-28T02:00:50.586Z,11.70
2018-03-28T02:03:20.446Z,11.80
2018-03-28T02:05:50.277Z,12.65
2018-03-28T02:08:20.133Z,11.38
2018-03-28T02:10:49.971Z,12.95
2018-03-28T02:13:19.822Z,13.07
2018-03-28T02:15:49.698Z,12.52
2018-03-28T02:18:19.521Z,11.60
2018-03-28T02:20:49.181Z,11.60
2018-03-28T02:23:19.066Z,12.37
2018-03-28T02:25:48.958Z,11.88
2018-03-28T02:28:18.829Z,12.63
2018-03-28T02:30:48.698Z,12.13
2018-03-28T02:33:25.169Z,12.45
2018-03-28T02:35:54.818Z,13.30
2018-03-28T02:38:24.721Z,13.35
2018-03-28T02:40:54.593Z,12.25
2018-03-28T02:43:24.412Z,13.20
2018-03-28T02:45:54.310Z,14.38
2018-03-28T02:48:24.199Z,13.85
2018-03-28T02:50:54.059Z,13.62
2018-03-28T02:53:23.886Z,14.85
2018-03-28T02:55:53.750Z,15.00
2018-03-28T02:58:24.370Z,13.95
2018-03-28T03:00:54.234Z,14.20
2018-03-28T03:03:24.052Z,15.25
2018-03-28T03:05:53.922Z,14.90
2018-03-28T03:08:24.541Z,16.15
2018-03-28T03:10:54.381Z,15.05
2018-03-28T03:13:24.212Z,15.05
2018-03-28T03:15:54.081Z,16.77
2018-03-28T03:18:23.960Z,14.90
2018-03-28T03:20:53.584Z,17.58
2018-03-28T03:23:23.461Z,15.82
2018-03-28T03:25:53.341Z,14.90
2018-03-28T03:28:23.828Z,17.83
2018-03-28T03:30:55.159Z,16.42
2018-03-28T03:36:19.779Z,17.17
2018-03-28T03:38:49.600Z,17.75
2018-03-28T03:41:19.526Z,16.77
2018-03-28T03:43:49.360Z,18.10
2018-03-28T03:46:19.998Z,16.70
2018-03-28T03:48:50.633Z,19.02
2018-03-28T03:51:21.225Z,18.17
2018-03-28T03:53:51.096Z,18.27
2018-03-28T03:56:20.933Z,18.95
2018-03-28T03:58:50.852Z,18.75
2018-03-28T04:01:20.849Z,18.40
2018-03-28T04:03:50.710Z,20.05
2018-03-28T04:06:20.590Z,18.17
2018-03-28T04:08:50.414Z,18.55
2018-03-28T04:11:20.482Z,19.45
2018-03-28T04:13:51.077Z,19.15
2018-03-28T04:16:20.939Z,18.98
2018-03-28T04:18:51.570Z,18.30
2018-03-28T04:21:22.207Z,21.40
2018-03-28T04:23:52.042Z,19.67
2018-03-28T04:26:21.909Z,20.80
2018-03-28T04:28:51.730Z,21.50
2018-03-28T04:31:22.392Z,20.92
2018-03-28T04:33:52.221Z,21.83
2018-03-28T04:36:21.739Z,21.10
2018-03-28T04:38:51.665Z,28.58
2018-03-28T04:41:21.701Z,20.65
2018-03-28T04:43:51.568Z,20.60
2018-03-28T04:46:21.389Z,21.80
2018-03-28T04:48:51.274Z,20.88
2018-03-28T04:51:21.957Z,21.87
2018-03-28T04:53:51.823Z,21.50
2018-03-28T04:56:22.453Z,21.70
2018-03-28T04:58:53.054Z,21.45
2018-03-28T05:01:23.768Z,21.23
2018-03-28T05:03:53.606Z,21.42
2018-03-28T05:06:23.850Z,21.12
2018-03-28T05:08:54.438Z,20.90
2018-03-28T05:11:24.297Z,22.15
2018-03-28T05:13:54.899Z,21.90
2018-03-28T05:16:24.773Z,23.15
2018-03-28T05:18:54.593Z,22.62
2018-03-28T05:21:24.450Z,174.98
2018-03-28T05:23:55.425Z,24.05
2018-03-28T05:26:27.595Z,24.35
2018-03-28T05:28:58.185Z,22.65
2018-03-28T05:31:28.018Z,24.87
2018-03-28T05:33:58.421Z,24.33
2018-03-28T05:36:28.293Z,24.20
2018-03-28T05:38:58.161Z,22.23
2018-03-28T05:41:28.798Z,23.50
2018-03-28T05:43:59.432Z,24.50
2018-03-28T05:46:30.034Z,23.12
2018-03-28T05:48:59.900Z,23.95
2018-03-28T05:51:29.715Z,24.45
2018-03-28T05:53:59.813Z,25.70
2018-03-28T05:56:30.447Z,24.30
2018-03-28T05:59:01.049Z,24.60
2018-03-28T06:01:30.893Z,26.62
2018-03-28T06:04:01.487Z,27.90
2018-03-28T06:06:31.337Z,27.08
2018-03-28T06:09:01.942Z,27.33
2018-03-28T06:11:32.286Z,27.00
2018-03-28T06:14:02.153Z,30.62
2018-03-28T06:16:31.976Z,26.27
2018-03-28T06:19:01.980Z,28.77
2018-03-28T06:21:31.849Z,29.23
2018-03-28T06:24:02.480Z,29.73
2018-03-28T06:26:33.070Z,30.73
2018-03-28T06:29:03.053Z,29.87
2018-03-28T06:31:32.919Z,30.37
2018-03-28T06:34:02.793Z,31.60
2018-03-28T06:36:32.634Z,31.30
2018-03-28T06:39:02.473Z,34.92
2018-03-28T06:41:32.091Z,29.67
2018-03-28T06:44:02.929Z,32.47
2018-03-28T06:46:33.698Z,30.75
2018-03-28T06:49:03.646Z,31.75
2018-03-28T06:51:33.530Z,33.22
2018-03-28T06:54:03.398Z,32.00
2018-03-28T06:56:33.366Z,32.78
2018-03-28T06:59:03.224Z,34.15
2018-03-28T07:01:33.042Z,31.83
2018-03-28T07:04:02.927Z,32.85
2018-03-28T07:06:32.802Z,33.65
2018-03-28T07:09:02.613Z,32.28
2018-03-28T07:11:33.082Z,33.35
2018-03-28T07:14:02.693Z,32.13
2018-03-28T07:16:32.629Z,31.77
2018-03-28T07:19:02.451Z,33.80
2018-03-28T07:21:32.297Z,34.67
2018-03-28T07:24:02.158Z,34.08
2018-03-28T07:26:31.977Z,34.17
2018-03-28T07:29:01.825Z,36.60
2018-03-28T07:31:32.420Z,34.20
2018-03-28T07:34:02.298Z,33.05
2018-03-28T07:36:32.188Z,34.65
2018-03-28T07:39:02.993Z,38.15
2018-03-28T07:41:33.740Z,34.70
2018-03-28T07:44:03.419Z,36.20
2018-03-28T07:46:33.271Z,35.88
2018-03-28T07:49:03.146Z,35.53
2018-03-28T07:51:32.980Z,36.50
2018-03-28T07:54:03.234Z,37.28
2018-03-28T07:56:34.029Z,36.50
2018-03-28T07:59:03.911Z,35.55
2018-03-28T08:01:33.786Z,38.50
2018-03-28T08:04:03.662Z,36.13
2018-03-28T08:06:33.517Z,38.22
2018-03-28T08:09:03.141Z,37.53
2018-03-28T08:11:33.738Z,38.83
2018-03-28T08:14:03.600Z,41.00
2018-03-28T08:16:34.192Z,40.12
2018-03-28T08:19:03.709Z,40.10
2018-03-28T08:21:33.518Z,39.45
2018-03-28T08:24:03.388Z,40.20
2018-03-28T08:26:33.230Z,36.85
2018-03-28T08:29:03.104Z,39.35
2018-03-28T08:31:32.962Z,40.15
2018-03-28T08:34:02.829Z,37.97
2018-03-28T08:36:32.700Z,40.33
2018-03-28T08:39:02.558Z,41.03
2018-03-28T08:41:32.160Z,40.95
2018-03-28T08:44:02.823Z,38.78
2018-03-28T08:46:32.689Z,39.83
2018-03-28T08:49:02.546Z,38.85
2018-03-28T08:51:32.380Z,46.95
2018-03-28T08:54:02.258Z,41.88
2018-03-28T08:56:32.125Z,42.78
2018-03-28T08:59:01.944Z,42.42
2018-03-28T09:01:33.327Z,43.70
2018-03-28T09:04:03.986Z,44.97
2018-03-28T09:06:33.830Z,44.10
2018-03-28T09:09:03.126Z,44.58
2018-03-28T09:11:33.048Z,41.97
2018-03-28T09:14:03.095Z,43.33
2018-03-28T09:16:32.954Z,42.10
2018-03-28T09:19:02.813Z,38.35
2018-03-28T09:21:32.647Z,41.20
2018-03-28T09:24:03.276Z,41.53
2018-03-28T09:26:33.905Z,40.97
2018-03-28T09:29:03.724Z,40.47
2018-03-28T09:31:34.337Z,40.22
2018-03-28T09:34:04.173Z,40.95
2018-03-28T09:36:34.797Z,39.47
2018-03-28T09:39:04.725Z,39.75
2018-03-28T09:41:35.373Z,41.50
2018-03-28T09:44:05.259Z,41.17
2018-03-28T09:46:35.316Z,38.88
2018-03-28T09:49:05.385Z,38.38
2018-03-28T09:51:35.276Z,38.72
2018-03-28T09:54:04.819Z,41.95
2018-03-28T09:56:34.690Z,40.42
2018-03-28T09:59:04.571Z,40.45
2018-03-28T10:01:34.189Z,39.03
2018-03-28T10:04:09.596Z,41.25
2018-03-28T10:06:39.225Z,40.75
2018-03-28T10:09:09.149Z,42.65
2018-03-28T10:11:39.002Z,41.42
2018-03-28T10:14:08.932Z,39.97
2018-03-28T10:16:38.996Z,39.67
2018-03-28T10:19:09.598Z,81.28
2018-03-28T10:21:40.247Z,42.47
2018-03-28T10:24:10.842Z,39.80
2018-03-28T10:26:40.705Z,40.12
2018-03-28T10:29:10.860Z,39.03
2018-03-28T10:31:40.728Z,41.58
2018-03-28T10:34:10.557Z,42.13
2018-03-28T10:36:40.449Z,40.12
2018-03-28T10:39:10.733Z,41.50
2018-03-28T10:41:40.613Z,37.35
2018-03-28T10:44:10.472Z,37.30
2018-03-28T10:46:40.357Z,41.45
2018-03-28T10:49:10.226Z,42.33
2018-03-28T10:51:40.827Z,38.38
2018-03-28T10:54:10.685Z,39.60
2018-03-28T10:56:40.627Z,42.20
2018-03-28T10:59:10.493Z,41.70
2018-03-28T11:01:40.341Z,42.15
2018-03-28T11:04:10.216Z,40.15
2018-03-28T11:06:40.057Z,42.20
2018-03-28T11:09:09.924Z,46.88
2018-03-28T11:11:39.798Z,45.50
2018-03-28T11:14:09.704Z,46.53
2018-03-28T11:16:39.539Z,45.60
2018-03-28T11:19:09.429Z,49.85
2018-03-28T11:21:39.338Z,50.22
2018-03-28T11:24:09.940Z,50.17
2018-03-28T11:26:39.551Z,49.72
2018-03-28T11:29:09.460Z,46.80
2018-03-28T11:31:39.455Z,51.22
2018-03-28T11:34:09.359Z,50.12
2018-03-28T11:36:39.206Z,48.67
2018-03-28T11:39:09.070Z,49.50
2018-03-28T11:41:39.768Z,48.17
2018-03-28T11:44:10.415Z,48.00
2018-03-28T11:46:41.025Z,50.90
2018-03-28T11:49:10.889Z,45.90
2018-03-28T11:51:40.798Z,46.47
2018-03-28T11:54:10.640Z,45.00
2018-03-28T11:56:41.297Z,43.90
2018-03-28T11:59:11.119Z,42.33
2018-03-28T12:01:40.713Z,40.97
2018-03-28T12:04:10.566Z,40.65
2018-03-28T12:06:40.430Z,41.70
2018-03-28T12:09:10.286Z,43.80
2018-03-28T12:11:40.154Z,40.12
2018-03-28T12:14:10.009Z,40.80
2018-03-28T12:16:40.681Z,38.85
2018-03-28T12:19:10.565Z,39.80
2018-03-28T12:21:41.153Z,38.45
2018-03-28T12:24:11.001Z,37.22
2018-03-28T12:26:40.648Z,38.33
2018-03-28T12:29:10.521Z,40.45
2018-03-28T12:31:40.373Z,38.45
2018-03-28T12:34:10.240Z,38.40
2018-03-28T12:36:40.099Z,35.45
2018-03-28T12:39:09.979Z,34.60
2018-03-28T12:41:40.574Z,36.85
2018-03-28T12:44:10.404Z,34.40
2018-03-28T12:46:40.993Z,31.52
2018-03-28T12:49:10.876Z,34.05
2018-03-28T12:51:41.473Z,31.12
2018-03-28T12:54:11.473Z,33.15
2018-03-28T12:56:41.393Z,31.90
2018-03-28T12:59:11.273Z,31.80
2018-03-28T13:01:41.129Z,32.30
2018-03-28T13:04:10.986Z,29.48
2018-03-28T13:06:41.634Z,29.75
2018-03-28T13:09:11.527Z,30.20
2018-03-28T13:11:42.150Z,29.85
2018-03-28T13:14:11.957Z,29.75
2018-03-28T13:16:41.808Z,31.35
2018-03-28T13:19:11.705Z,30.67
2018-03-28T13:21:42.369Z,34.88
2018-03-28T13:24:12.217Z,30.48
2018-03-28T13:26:41.854Z,33.80
2018-03-28T13:29:12.445Z,29.75
2018-03-28T13:31:42.297Z,30.65
2018-03-28T13:34:12.913Z,30.12
2018-03-28T13:36:42.726Z,34.00
2018-03-28T13:39:12.578Z,30.98
2018-03-28T13:41:42.397Z,31.30
2018-03-28T13:44:12.271Z,30.90
2018-03-28T13:46:42.230Z,28.23
2018-03-28T13:49:12.113Z,30.35
2018-03-28T13:51:42.729Z,28.42
2018-03-28T13:54:13.618Z,28.00
2018-03-28T13:56:43.473Z,27.30
2018-03-28T13:59:13.298Z,29.15
2018-03-28T14:01:43.254Z,29.85
2018-03-28T14:04:13.080Z,28.38
2018-03-28T14:06:42.920Z,29.05
2018-03-28T14:09:12.796Z,30.12
2018-03-28T14:11:42.619Z,24.27
2018-03-28T14:14:12.453Z,29.15
2018-03-28T14:16:42.289Z,27.20
2018-03-28T14:19:12.156Z,28.20
2018-03-28T14:21:42.012Z,28.42
2018-03-28T14:24:11.748Z,26.80
2018-03-28T14:26:42.337Z,27.15
2018-03-28T14:29:12.177Z,28.35
2018-03-28T14:31:41.994Z,26.95
2018-03-28T14:34:11.949Z,26.60
2018-03-28T14:36:41.787Z,28.83
2018-03-28T14:39:11.797Z,28.00
2018-03-28T14:41:42.868Z,27.08
2018-03-28T14:44:12.351Z,26.95
2018-03-28T14:46:42.245Z,29.42
2018-03-28T14:49:12.062Z,25.05
2018-03-28T14:51:41.897Z,28.10
2018-03-28T14:54:11.725Z,26.25
2018-03-28T14:56:41.569Z,26.23
2018-03-28T14:59:12.173Z,26.67
2018-03-28T15:01:41.712Z,29.70
2018-03-28T15:04:12.302Z,27.62
2018-03-28T15:06:42.155Z,27.33
2018-03-28T15:09:13.860Z,27.92
2018-03-28T15:11:43.728Z,25.25
2018-03-28T15:14:14.300Z,27.40
2018-03-28T15:16:44.230Z,26.70
2018-03-28T15:19:14.054Z,24.90
2018-03-28T15:21:45.178Z,25.67
2018-03-28T15:24:15.880Z,27.60
2018-03-28T15:26:46.539Z,28.92
2018-03-28T15:29:16.654Z,26.60
2018-03-28T15:31:46.588Z,28.00
2018-03-28T15:34:16.891Z,22.95
2018-03-28T15:36:46.762Z,29.73
2018-03-28T15:39:16.608Z,29.23
2018-03-28T15:41:46.416Z,28.00
2018-03-28T15:44:16.280Z,27.13
2018-03-28T15:46:46.102Z,27.55
2018-03-28T15:49:16.950Z,29.08
2018-03-28T15:51:46.769Z,28.15
2018-03-28T15:54:17.386Z,27.02
2018-03-28T15:56:47.280Z,28.75
2018-03-28T15:59:17.098Z,28.60
2018-03-28T16:01:46.947Z,27.70
2018-03-28T16:04:16.795Z,29.83
2018-03-28T16:06:46.658Z,28.30
2018-03-28T16:09:17.308Z,28.27
2018-03-28T16:11:46.945Z,30.00
2018-03-28T16:14:16.762Z,27.20
2018-03-28T16:16:46.633Z,29.20
2018-03-28T16:19:16.214Z,27.50
2018-03-28T16:21:46.085Z,28.90
2018-03-28T16:24:15.933Z,28.80
2018-03-28T16:26:45.810Z,29.67
2018-03-28T16:29:15.676Z,30.08
2018-03-28T16:31:45.516Z,28.73
2018-03-28T16:34:15.408Z,27.20
2018-03-28T16:36:45.315Z,27.48
2018-03-28T16:39:15.202Z,27.98
2018-03-28T16:41:45.048Z,31.50
2018-03-28T16:44:14.992Z,32.95
2018-03-28T16:46:44.874Z,29.77
2018-03-28T16:49:14.578Z,31.00
2018-03-28T16:51:44.485Z,30.35
2018-03-28T16:54:14.378Z,31.42
2018-03-28T16:56:45.864Z,30.95
2018-03-28T16:59:16.037Z,40.65
2018-03-28T17:01:45.667Z,32.25
2018-03-28T17:04:15.525Z,32.47
2018-03-28T17:06:45.382Z,31.05
2018-03-28T17:09:15.224Z,33.10
2018-03-28T17:11:45.059Z,30.90
2018-03-28T17:14:14.953Z,32.67
2018-03-28T17:16:44.611Z,32.22
2018-03-28T17:19:15.188Z,31.52
2018-03-28T17:21:45.074Z,33.88
2018-03-28T17:24:15.057Z,33.28
2018-03-28T17:26:45.681Z,31.80
2018-03-28T17:29:15.539Z,30.45
2018-03-28T17:31:45.374Z,34.30
2018-03-28T17:34:15.014Z,31.50
2018-03-28T17:36:44.880Z,33.42
2018-03-28T17:39:14.506Z,32.50
2018-03-28T17:41:44.422Z,35.92
2018-03-28T17:44:14.429Z,48.72
2018-03-28T17:46:44.297Z,32.55
2018-03-28T17:49:14.917Z,34.08
2018-03-28T17:51:44.788Z,35.03
2018-03-28T17:54:14.613Z,34.13
2018-03-28T17:56:44.298Z,34.05
2018-03-28T17:59:14.134Z,34.55
2018-03-28T18:01:44.051Z,32.92
2018-03-28T18:04:13.882Z,34.78
2018-03-28T18:06:43.792Z,34.22
2018-03-28T18:09:13.360Z,36.40
2018-03-28T18:11:43.214Z,32.90
2018-03-28T18:14:13.109Z,35.83
2018-03-28T18:16:42.921Z,34.58
2018-03-28T18:19:12.778Z,34.60
2018-03-28T18:21:43.372Z,35.38
2018-03-28T18:24:13.285Z,34.55
2018-03-28T18:26:43.125Z,36.10
2018-03-28T18:29:13.769Z,34.38
2018-03-28T18:31:44.357Z,33.13
2018-03-28T18:34:14.250Z,36.30
2018-03-28T18:36:44.489Z,40.25
2018-03-28T18:39:14.335Z,33.80
2018-03-28T18:41:44.202Z,37.70
2018-03-28T18:44:14.061Z,39.75
2018-03-28T18:46:43.890Z,39.35
2018-03-28T18:49:13.770Z,37.00
2018-03-28T18:51:43.613Z,39.30
2018-03-28T18:54:13.462Z,37.00
2018-03-28T18:56:43.293Z,40.65
2018-03-28T18:59:13.181Z,39.63
2018-03-28T19:01:43.025Z,40.35
2018-03-28T19:04:12.937Z,39.15
2018-03-28T19:06:42.833Z,40.80
2018-03-28T19:09:12.455Z,39.78
2018-03-28T19:11:42.352Z,38.78
2018-03-28T19:14:11.882Z,41.25
2018-03-28T19:16:41.772Z,39.90
2018-03-28T19:19:11.639Z,39.13
2018-03-28T19:21:41.469Z,40.60
2018-03-28T19:24:11.349Z,40.65
2018-03-28T19:26:41.951Z,41.05
2018-03-28T19:29:11.809Z,41.67
2018-03-28T19:31:42.204Z,41.58
2018-03-28T19:34:12.049Z,43.35
2018-03-28T19:36:42.717Z,41.90
2018-03-28T19:39:13.316Z,43.58
2018-03-28T19:41:43.181Z,42.83
2018-03-28T19:44:13.070Z,41.15
2018-03-28T19:46:43.078Z,41.33
2018-03-28T19:49:12.910Z,45.72
2018-03-28T19:51:43.575Z,43.67
2018-03-28T19:54:13.468Z,44.92
2018-03-28T19:56:43.337Z,45.35
2018-03-28T19:59:13.212Z,45.53
2018-03-28T20:01:43.898Z,45.58
2018-03-28T20:04:13.789Z,45.35
2018-03-28T20:06:43.649Z,46.05
2018-03-28T20:09:14.285Z,46.20
2018-03-28T20:11:44.884Z,48.00
2018-03-28T20:14:14.787Z,46.05
2018-03-28T20:16:44.643Z,45.03
2018-03-28T20:19:15.284Z,45.78
2018-03-28T20:21:45.865Z,52.25
2018-03-28T20:24:15.762Z,47.53
2018-03-28T20:26:45.639Z,45.50
2018-03-28T20:29:16.217Z,46.60
2018-03-28T20:31:46.085Z,48.05
2018-03-28T20:34:16.680Z,48.17
2018-03-28T20:36:46.547Z,43.83
2018-03-28T20:39:16.405Z,47.03
2018-03-28T20:41:46.277Z,47.67
2018-03-28T20:44:16.135Z,50.10
2018-03-28T20:46:46.005Z,50.08
2018-03-28T20:49:15.623Z,48.67
2018-03-28T20:51:45.179Z,47.88
2018-03-28T20:54:15.053Z,48.45
2018-03-28T20:56:44.889Z,47.80
2018-03-28T20:59:14.764Z,47.92
2018-03-28T21:01:44.614Z,47.30
2018-03-28T21:04:14.493Z,47.88
2018-03-28T21:06:44.335Z,49.53
2018-03-28T21:09:14.251Z,46.22
2018-03-28T21:11:44.265Z,46.37
2018-03-28T21:14:14.149Z,43.95
2018-03-28T21:16:44.025Z,47.80
2018-03-28T21:19:14.099Z,47.00
2018-03-28T21:21:43.921Z,47.25
2018-03-28T21:24:13.775Z,44.97
2018-03-28T21:26:43.598Z,47.33
2018-03-28T21:29:14.240Z,47.85
2018-03-28T21:31:44.113Z,43.80
2018-03-28T21:34:13.628Z,43.47
2018-03-28T21:36:44.296Z,46.35
2018-03-28T21:39:14.133Z,44.30
2018-03-28T21:41:44.001Z,46.28
2018-03-28T21:44:14.598Z,45.45
2018-03-28T21:46:44.469Z,44.28
2018-03-28T21:49:14.319Z,44.03
2018-03-28T21:51:44.191Z,44.47
2018-03-28T21:54:14.824Z,42.10
2018-03-28T21:56:45.421Z,39.60
2018-03-28T21:59:15.272Z,40.95
2018-03-28T22:01:45.088Z,40.35
2018-03-28T22:04:15.780Z,38.05
2018-03-28T22:06:45.644Z,39.47
2018-03-28T22:09:16.280Z,40.10
2018-03-28T22:11:46.894Z,35.55
2018-03-28T22:14:16.777Z,38.92
2018-03-28T22:16:46.657Z,38.40
2018-03-28T22:19:16.722Z,38.33
2018-03-28T22:21:47.701Z,33.95
2018-03-28T22:24:18.083Z,33.97
2018-03-28T22:26:47.737Z,35.53
2018-03-28T22:29:18.365Z,35.17
2018-03-28T22:31:48.201Z,35.08
2018-03-28T22:34:18.083Z,36.83
2018-03-28T22:36:47.711Z,33.28
2018-03-28T22:39:18.318Z,35.65
2018-03-28T22:41:48.201Z,32.75
2018-03-28T22:44:18.069Z,32.92
2018-03-28T22:46:48.758Z,33.90
2018-03-28T22:49:18.568Z,34.33
2018-03-28T22:51:48.427Z,33.17
2018-03-28T22:54:19.069Z,33.95
2018-03-28T22:56:48.914Z,33.45
2018-03-28T22:59:18.831Z,37.03
2018-03-28T23:01:48.710Z,36.92
2018-03-28T23:04:18.558Z,34.65
2018-03-28T23:06:48.426Z,35.70
2018-03-28T23:09:18.286Z,35.47
2018-03-28T23:11:48.288Z,33.97
2018-03-28T23:14:18.689Z,35.05
2018-03-28T23:16:48.610Z,35.30
2018-03-28T23:19:18.281Z,35.47
2018-03-28T23:21:48.195Z,35.85
2018-03-28T23:24:18.070Z,36.75
2018-03-28T23:26:47.892Z,35.15
2018-03-28T23:29:17.747Z,35.78
2018-03-28T23:31:47.589Z,33.30
2018-03-28T23:34:18.212Z,33.65
2018-03-28T23:36:48.841Z,33.25
2018-03-28T23:39:19.451Z,35.55
2018-03-28T23:41:49.289Z,34.85
2018-03-28T23:44:19.871Z,34.45
2018-03-28T23:46:49.730Z,32.70
2018-03-28T23:49:19.627Z,35.03
2018-03-28T23:51:49.451Z,34.47
2018-03-28T23:54:19.421Z,35.00
2018-03-28T23:56:49.252Z,35.33
2018-03-28T23:59:19.113Z,35.42
